Nolinsk, Russia
Current Conditions -  °F | °C
As of 3:00 PM on Sunday 23 Nov 2014 (Local Time) from UWKD Reporting Station
Broken Clouds Broken Clouds  
Wind Chill:   Ceiling: 2700
Heat Index: 23°   Visibility: 6mi
Dew Point: 16°   Wind: 20mph
Humidity: 74%   Direction: 30°NNE
Pressure: 30.36"   Gusts: 27mph
Location:  57.56°N, 49.94°E
Report Text: UWKD 231100Z 03009G12MPS 9999 BKN027 M05/M09 Q1028 R29/CLRD60NOSIG RMK QFE760/1013
Loading
Personal Weather Stations






























Interactive Weather Map New forecast layout! Learn more

10-Day Weather Forecast

Advertisements
Track Severe Weather on mobile